sensor_id;sensor_type;location;lat;lon;timestamp;P1;durP1;ratioP1;P2;durP2;ratioP2
261;SDS011;114;48.260;10.988;2023-05-07T00:01:38;5.80;;;5.00;;
261;SDS011;114;48.260;10.988;2023-05-07T00:04:04;6.00;;;5.50;;
261;SDS011;114;48.260;10.988;2023-05-07T00:06:31;8.73;;;5.73;;
261;SDS011;114;48.260;10.988;2023-05-07T00:08:58;6.47;;;5.90;;
261;SDS011;114;48.260;10.988;2023-05-07T00:11:24;5.37;;;4.97;;
261;SDS011;114;48.260;10.988;2023-05-07T00:13:50;5.30;;;4.77;;
261;SDS011;114;48.260;10.988;2023-05-07T00:16:16;5.70;;;5.30;;
261;SDS011;114;48.260;10.988;2023-05-07T00:18:42;5.87;;;5.27;;
261;SDS011;114;48.260;10.988;2023-05-07T00:21:07;16.63;;;6.00;;
261;SDS011;114;48.260;10.988;2023-05-07T00:23:33;6.83;;;5.37;;
261;SDS011;114;48.260;10.988;2023-05-07T00:25:59;9.17;;;5.77;;
261;SDS011;114;48.260;10.988;2023-05-07T00:28:24;6.57;;;5.70;;
261;SDS011;114;48.260;10.988;2023-05-07T00:30:50;4.90;;;4.40;;
261;SDS011;114;48.260;10.988;2023-05-07T00:33:16;12.20;;;5.73;;
261;SDS011;114;48.260;10.988;2023-05-07T00:35:42;5.93;;;5.30;;
261;SDS011;114;48.260;10.988;2023-05-07T00:38:07;6.17;;;5.67;;
261;SDS011;114;48.260;10.988;2023-05-07T00:40:33;6.83;;;5.90;;
261;SDS011;114;48.260;10.988;2023-05-07T00:42:59;11.50;;;7.10;;
261;SDS011;114;48.260;10.988;2023-05-07T00:45:28;8.00;;;5.70;;
261;SDS011;114;48.260;10.988;2023-05-07T00:47:58;6.03;;;5.53;;
261;SDS011;114;48.260;10.988;2023-05-07T00:50:26;6.43;;;5.93;;
261;SDS011;114;48.260;10.988;2023-05-07T00:52:52;5.57;;;5.10;;
261;SDS011;114;48.260;10.988;2023-05-07T00:55:19;7.70;;;5.20;;
261;SDS011;114;48.260;10.988;2023-05-07T00:57:45;5.67;;;5.17;;
261;SDS011;114;48.260;10.988;2023-05-07T01:00:11;9.17;;;5.57;;
261;SDS011;114;48.260;10.988;2023-05-07T01:02:38;6.20;;;5.60;;
261;SDS011;114;48.260;10.988;2023-05-07T01:05:04;5.87;;;5.27;;
261;SDS011;114;48.260;10.988;2023-05-07T01:07:32;6.70;;;5.27;;
261;SDS011;114;48.260;10.988;2023-05-07T01:09:59;8.40;;;5.17;;
261;SDS011;114;48.260;10.988;2023-05-07T01:12:26;6.30;;;5.40;;
261;SDS011;114;48.260;10.988;2023-05-07T01:14:53;7.00;;;5.50;;
261;SDS011;114;48.260;10.988;2023-05-07T01:17:19;8.50;;;6.50;;
261;SDS011;114;48.260;10.988;2023-05-07T01:19:45;6.83;;;5.67;;
261;SDS011;114;48.260;10.988;2023-05-07T01:22:12;6.03;;;5.47;;
261;SDS011;114;48.260;10.988;2023-05-07T01:24:41;6.33;;;5.93;;
261;SDS011;114;48.260;10.988;2023-05-07T01:27:08;5.73;;;5.33;;
261;SDS011;114;48.260;10.988;2023-05-07T01:29:33;7.43;;;5.80;;
261;SDS011;114;48.260;10.988;2023-05-07T01:32:00;8.53;;;6.70;;
261;SDS011;114;48.260;10.988;2023-05-07T01:34:28;6.67;;;6.00;;
261;SDS011;114;48.260;10.988;2023-05-07T01:36:56;6.70;;;6.00;;
261;SDS011;114;48.260;10.988;2023-05-07T01:39:27;6.60;;;5.80;;
261;SDS011;114;48.260;10.988;2023-05-07T01:41:54;6.60;;;6.20;;
261;SDS011;114;48.260;10.988;2023-05-07T01:44:21;11.63;;;6.70;;
261;SDS011;114;48.260;10.988;2023-05-07T01:46:47;7.70;;;6.90;;
261;SDS011;114;48.260;10.988;2023-05-07T01:49:14;6.77;;;5.27;;
261;SDS011;114;48.260;10.988;2023-05-07T01:51:40;4.90;;;4.60;;
261;SDS011;114;48.260;10.988;2023-05-07T01:54:06;10.50;;;4.20;;
261;SDS011;114;48.260;10.988;2023-05-07T01:56:33;5.57;;;5.00;;
261;SDS011;114;48.260;10.988;2023-05-07T01:58:59;5.77;;;5.27;;
261;SDS011;114;48.260;10.988;2023-05-07T02:01:25;5.33;;;4.97;;
261;SDS011;114;48.260;10.988;2023-05-07T02:03:51;4.97;;;4.67;;
261;SDS011;114;48.260;10.988;2023-05-07T02:06:16;7.87;;;5.30;;
261;SDS011;114;48.260;10.988;2023-05-07T02:08:42;5.77;;;5.37;;
261;SDS011;114;48.260;10.988;2023-05-07T02:11:08;5.80;;;5.40;;
261;SDS011;114;48.260;10.988;2023-05-07T02:13:34;5.77;;;5.27;;
261;SDS011;114;48.260;10.988;2023-05-07T02:16:00;5.67;;;5.17;;
261;SDS011;114;48.260;10.988;2023-05-07T02:18:26;5.30;;;4.87;;
261;SDS011;114;48.260;10.988;2023-05-07T02:20:51;6.00;;;5.60;;
261;SDS011;114;48.260;10.988;2023-05-07T02:23:17;5.50;;;5.20;;
261;SDS011;114;48.260;10.988;2023-05-07T02:25:43;8.90;;;6.03;;
261;SDS011;114;48.260;10.988;2023-05-07T02:28:09;11.33;;;5.20;;
261;SDS011;114;48.260;10.988;2023-05-07T02:30:35;5.83;;;5.33;;
261;SDS011;114;48.260;10.988;2023-05-07T02:33:02;5.53;;;5.10;;
261;SDS011;114;48.260;10.988;2023-05-07T02:35:28;6.67;;;5.90;;
261;SDS011;114;48.260;10.988;2023-05-07T02:37:54;5.60;;;5.20;;
261;SDS011;114;48.260;10.988;2023-05-07T02:40:19;8.80;;;6.00;;
261;SDS011;114;48.260;10.988;2023-05-07T02:42:45;7.03;;;6.47;;
261;SDS011;114;48.260;10.988;2023-05-07T02:45:11;13.43;;;6.93;;
261;SDS011;114;48.260;10.988;2023-05-07T02:47:36;7.33;;;6.83;;
261;SDS011;114;48.260;10.988;2023-05-07T02:50:02;11.43;;;8.33;;
261;SDS011;114;48.260;10.988;2023-05-07T02:52:28;7.87;;;7.13;;
261;SDS011;114;48.260;10.988;2023-05-07T02:54:54;9.03;;;7.13;;
261;SDS011;114;48.260;10.988;2023-05-07T02:57:20;7.80;;;7.07;;
261;SDS011;114;48.260;10.988;2023-05-07T02:59:45;7.37;;;6.63;;
261;SDS011;114;48.260;10.988;2023-05-07T03:02:11;10.37;;;6.43;;
261;SDS011;114;48.260;10.988;2023-05-07T03:04:37;7.53;;;6.83;;
261;SDS011;114;48.260;10.988;2023-05-07T03:07:03;10.40;;;6.80;;
261;SDS011;114;48.260;10.988;2023-05-07T03:09:29;7.50;;;6.80;;
261;SDS011;114;48.260;10.988;2023-05-07T03:11:56;7.10;;;6.60;;
261;SDS011;114;48.260;10.988;2023-05-07T03:14:22;8.03;;;7.03;;
261;SDS011;114;48.260;10.988;2023-05-07T03:16:48;8.70;;;7.80;;
261;SDS011;114;48.260;10.988;2023-05-07T03:19:14;7.57;;;7.00;;
261;SDS011;114;48.260;10.988;2023-05-07T03:21:40;7.20;;;6.60;;
261;SDS011;114;48.260;10.988;2023-05-07T03:24:06;7.43;;;6.10;;
261;SDS011;114;48.260;10.988;2023-05-07T03:26:32;7.53;;;6.93;;
261;SDS011;114;48.260;10.988;2023-05-07T03:28:57;7.40;;;6.80;;
261;SDS011;114;48.260;10.988;2023-05-07T03:31:23;8.40;;;6.77;;
261;SDS011;114;48.260;10.988;2023-05-07T03:33:50;8.50;;;7.73;;
261;SDS011;114;48.260;10.988;2023-05-07T03:36:20;11.83;;;8.00;;
261;SDS011;114;48.260;10.988;2023-05-07T03:38:46;8.80;;;8.00;;
261;SDS011;114;48.260;10.988;2023-05-07T03:41:13;8.23;;;7.53;;
261;SDS011;114;48.260;10.988;2023-05-07T03:43:39;7.70;;;7.03;;
261;SDS011;114;48.260;10.988;2023-05-07T03:46:04;7.00;;;6.40;;
261;SDS011;114;48.260;10.988;2023-05-07T03:48:30;7.10;;;6.60;;
261;SDS011;114;48.260;10.988;2023-05-07T03:50:56;12.10;;;8.00;;
261;SDS011;114;48.260;10.988;2023-05-07T03:53:23;8.00;;;7.40;;
261;SDS011;114;48.260;10.988;2023-05-07T03:55:48;9.20;;;8.17;;
261;SDS011;114;48.260;10.988;2023-05-07T03:58:14;7.93;;;7.30;;
261;SDS011;114;48.260;10.988;2023-05-07T04:00:40;9.20;;;8.50;;
261;SDS011;114;48.260;10.988;2023-05-07T04:03:06;8.60;;;7.77;;
261;SDS011;114;48.260;10.988;2023-05-07T04:05:32;9.10;;;7.20;;
261;SDS011;114;48.260;10.988;2023-05-07T04:07:58;9.10;;;8.20;;
261;SDS011;114;48.260;10.988;2023-05-07T04:10:24;15.23;;;7.80;;
261;SDS011;114;48.260;10.988;2023-05-07T04:12:50;7.53;;;6.90;;
261;SDS011;114;48.260;10.988;2023-05-07T04:15:16;10.30;;;8.20;;
261;SDS011;114;48.260;10.988;2023-05-07T04:17:42;11.93;;;7.00;;
261;SDS011;114;48.260;10.988;2023-05-07T04:20:13;9.67;;;6.90;;
261;SDS011;114;48.260;10.988;2023-05-07T04:22:40;8.07;;;7.27;;
261;SDS011;114;48.260;10.988;2023-05-07T04:25:06;6.83;;;6.33;;
261;SDS011;114;48.260;10.988;2023-05-07T04:27:34;8.97;;;8.07;;
261;SDS011;114;48.260;10.988;2023-05-07T04:30:00;15.93;;;8.17;;
261;SDS011;114;48.260;10.988;2023-05-07T04:32:27;9.17;;;8.23;;
261;SDS011;114;48.260;10.988;2023-05-07T04:34:54;11.30;;;7.60;;
261;SDS011;114;48.260;10.988;2023-05-07T04:37:20;8.00;;;7.30;;
261;SDS011;114;48.260;10.988;2023-05-07T04:39:46;11.43;;;7.80;;
261;SDS011;114;48.260;10.988;2023-05-07T04:42:15;11.63;;;7.87;;
261;SDS011;114;48.260;10.988;2023-05-07T04:44:42;9.63;;;8.73;;
261;SDS011;114;48.260;10.988;2023-05-07T04:47:08;10.90;;;8.17;;
261;SDS011;114;48.260;10.988;2023-05-07T04:49:34;10.10;;;8.30;;
261;SDS011;114;48.260;10.988;2023-05-07T04:52:00;7.97;;;7.23;;
261;SDS011;114;48.260;10.988;2023-05-07T04:54:26;13.43;;;9.10;;
261;SDS011;114;48.260;10.988;2023-05-07T04:56:51;8.43;;;7.83;;
261;SDS011;114;48.260;10.988;2023-05-07T04:59:17;12.47;;;10.13;;
261;SDS011;114;48.260;10.988;2023-05-07T05:01:43;10.57;;;9.67;;
261;SDS011;114;48.260;10.988;2023-05-07T05:04:08;10.10;;;9.20;;
261;SDS011;114;48.260;10.988;2023-05-07T05:06:35;11.67;;;9.03;;
261;SDS011;114;48.260;10.988;2023-05-07T05:09:00;11.40;;;8.70;;
261;SDS011;114;48.260;10.988;2023-05-07T05:11:26;9.47;;;8.57;;
261;SDS011;114;48.260;10.988;2023-05-07T05:13:52;10.27;;;9.27;;
261;SDS011;114;48.260;10.988;2023-05-07T05:16:17;8.80;;;7.90;;
261;SDS011;114;48.260;10.988;2023-05-07T05:18:43;9.17;;;8.30;;
261;SDS011;114;48.260;10.988;2023-05-07T05:21:09;10.07;;;8.00;;
261;SDS011;114;48.260;10.988;2023-05-07T05:23:34;13.90;;;7.97;;
261;SDS011;114;48.260;10.988;2023-05-07T05:26:00;8.87;;;8.00;;
261;SDS011;114;48.260;10.988;2023-05-07T05:28:26;8.87;;;7.87;;
261;SDS011;114;48.260;10.988;2023-05-07T05:30:53;8.73;;;8.03;;
261;SDS011;114;48.260;10.988;2023-05-07T05:33:19;13.90;;;7.90;;
261;SDS011;114;48.260;10.988;2023-05-07T05:35:44;10.03;;;7.83;;
261;SDS011;114;48.260;10.988;2023-05-07T05:38:10;8.77;;;8.07;;
261;SDS011;114;48.260;10.988;2023-05-07T05:40:36;9.37;;;8.57;;
261;SDS011;114;48.260;10.988;2023-05-07T05:43:01;9.17;;;8.37;;
261;SDS011;114;48.260;10.988;2023-05-07T05:45:27;10.50;;;9.40;;
261;SDS011;114;48.260;10.988;2023-05-07T05:47:53;12.13;;;9.53;;
261;SDS011;114;48.260;10.988;2023-05-07T05:50:20;13.60;;;10.07;;
261;SDS011;114;48.260;10.988;2023-05-07T05:52:46;8.93;;;8.07;;
261;SDS011;114;48.260;10.988;2023-05-07T05:55:12;10.73;;;8.53;;
261;SDS011;114;48.260;10.988;2023-05-07T05:57:38;8.87;;;8.00;;
261;SDS011;114;48.260;10.988;2023-05-07T06:00:04;9.03;;;8.10;;
261;SDS011;114;48.260;10.988;2023-05-07T06:02:31;10.20;;;9.20;;
261;SDS011;114;48.260;10.988;2023-05-07T06:04:57;11.50;;;9.20;;
261;SDS011;114;48.260;10.988;2023-05-07T06:07:22;10.70;;;8.60;;
261;SDS011;114;48.260;10.988;2023-05-07T06:09:48;17.33;;;8.80;;
261;SDS011;114;48.260;10.988;2023-05-07T06:12:14;11.73;;;8.33;;
261;SDS011;114;48.260;10.988;2023-05-07T06:14:39;10.03;;;7.37;;
261;SDS011;114;48.260;10.988;2023-05-07T06:17:07;7.40;;;6.80;;
261;SDS011;114;48.260;10.988;2023-05-07T06:19:33;7.20;;;6.70;;
261;SDS011;114;48.260;10.988;2023-05-07T06:21:58;9.20;;;7.40;;
261;SDS011;114;48.260;10.988;2023-05-07T06:24:26;7.37;;;6.37;;
261;SDS011;114;48.260;10.988;2023-05-07T06:26:52;9.93;;;5.90;;
261;SDS011;114;48.260;10.988;2023-05-07T06:29:17;7.87;;;5.13;;
261;SDS011;114;48.260;10.988;2023-05-07T06:31:43;6.07;;;5.50;;
261;SDS011;114;48.260;10.988;2023-05-07T06:34:09;8.77;;;6.10;;
261;SDS011;114;48.260;10.988;2023-05-07T06:36:39;5.50;;;5.10;;
261;SDS011;114;48.260;10.988;2023-05-07T06:39:07;6.03;;;5.53;;
261;SDS011;114;48.260;10.988;2023-05-07T06:41:33;6.40;;;5.53;;
261;SDS011;114;48.260;10.988;2023-05-07T06:44:00;6.80;;;5.70;;
261;SDS011;114;48.260;10.988;2023-05-07T06:46:30;5.60;;;5.10;;
261;SDS011;114;48.260;10.988;2023-05-07T06:48:55;6.30;;;5.73;;
261;SDS011;114;48.260;10.988;2023-05-07T06:51:21;5.90;;;5.40;;
261;SDS011;114;48.260;10.988;2023-05-07T06:53:48;5.13;;;4.73;;
261;SDS011;114;48.260;10.988;2023-05-07T06:56:13;7.90;;;4.50;;
261;SDS011;114;48.260;10.988;2023-05-07T06:58:39;5.63;;;5.23;;
261;SDS011;114;48.260;10.988;2023-05-07T07:01:05;5.60;;;5.10;;
261;SDS011;114;48.260;10.988;2023-05-07T07:03:31;5.53;;;4.77;;
261;SDS011;114;48.260;10.988;2023-05-07T07:05:56;4.70;;;4.30;;
261;SDS011;114;48.260;10.988;2023-05-07T07:08:22;5.10;;;4.43;;
261;SDS011;114;48.260;10.988;2023-05-07T07:10:48;6.17;;;3.83;;
261;SDS011;114;48.260;10.988;2023-05-07T07:13:14;4.30;;;3.90;;
261;SDS011;114;48.260;10.988;2023-05-07T07:15:39;3.07;;;2.87;;
261;SDS011;114;48.260;10.988;2023-05-07T07:18:05;8.93;;;3.80;;
261;SDS011;114;48.260;10.988;2023-05-07T07:20:31;3.73;;;3.43;;
261;SDS011;114;48.260;10.988;2023-05-07T07:22:57;3.50;;;3.20;;
261;SDS011;114;48.260;10.988;2023-05-07T07:25:24;6.67;;;3.23;;
261;SDS011;114;48.260;10.988;2023-05-07T07:27:50;4.43;;;3.30;;
261;SDS011;114;48.260;10.988;2023-05-07T07:30:15;6.97;;;3.07;;
261;SDS011;114;48.260;10.988;2023-05-07T07:32:41;3.17;;;2.97;;
261;SDS011;114;48.260;10.988;2023-05-07T07:35:07;3.27;;;3.07;;
261;SDS011;114;48.260;10.988;2023-05-07T07:37:34;2.77;;;2.30;;
261;SDS011;114;48.260;10.988;2023-05-07T07:39:59;3.30;;;3.10;;
261;SDS011;114;48.260;10.988;2023-05-07T07:42:25;3.77;;;3.37;;
261;SDS011;114;48.260;10.988;2023-05-07T07:44:52;3.50;;;3.30;;
261;SDS011;114;48.260;10.988;2023-05-07T07:47:17;2.63;;;2.43;;
261;SDS011;114;48.260;10.988;2023-05-07T07:49:43;4.90;;;3.80;;
261;SDS011;114;48.260;10.988;2023-05-07T07:52:09;3.67;;;3.37;;
261;SDS011;114;48.260;10.988;2023-05-07T07:54:35;4.27;;;3.80;;
261;SDS011;114;48.260;10.988;2023-05-07T07:57:00;6.50;;;4.27;;
261;SDS011;114;48.260;10.988;2023-05-07T07:59:26;4.40;;;4.00;;
261;SDS011;114;48.260;10.988;2023-05-07T08:01:52;5.27;;;4.50;;
261;SDS011;114;48.260;10.988;2023-05-07T08:04:20;4.27;;;3.97;;
261;SDS011;114;48.260;10.988;2023-05-07T08:06:46;4.33;;;3.93;;
261;SDS011;114;48.260;10.988;2023-05-07T08:09:12;9.00;;;4.20;;
261;SDS011;114;48.260;10.988;2023-05-07T08:11:38;4.10;;;3.80;;
261;SDS011;114;48.260;10.988;2023-05-07T08:14:04;4.90;;;3.80;;
261;SDS011;114;48.260;10.988;2023-05-07T08:16:30;3.80;;;3.40;;
261;SDS011;114;48.260;10.988;2023-05-07T08:18:56;3.53;;;3.23;;
261;SDS011;114;48.260;10.988;2023-05-07T08:21:22;9.03;;;3.30;;
261;SDS011;114;48.260;10.988;2023-05-07T08:23:48;6.10;;;3.50;;
261;SDS011;114;48.260;10.988;2023-05-07T08:26:13;2.90;;;2.53;;
261;SDS011;114;48.260;10.988;2023-05-07T08:28:39;3.80;;;3.47;;
261;SDS011;114;48.260;10.988;2023-05-07T08:31:05;3.20;;;2.90;;
261;SDS011;114;48.260;10.988;2023-05-07T08:33:31;3.83;;;3.10;;
261;SDS011;114;48.260;10.988;2023-05-07T08:35:56;3.80;;;3.60;;
261;SDS011;114;48.260;10.988;2023-05-07T08:38:22;3.77;;;3.57;;
261;SDS011;114;48.260;10.988;2023-05-07T08:40:48;6.87;;;3.60;;
261;SDS011;114;48.260;10.988;2023-05-07T08:43:13;4.63;;;3.47;;
261;SDS011;114;48.260;10.988;2023-05-07T08:45:40;4.00;;;3.80;;
261;SDS011;114;48.260;10.988;2023-05-07T08:48:10;7.47;;;4.00;;
261;SDS011;114;48.260;10.988;2023-05-07T08:50:40;5.07;;;3.33;;
261;SDS011;114;48.260;10.988;2023-05-07T08:53:06;3.37;;;3.17;;
261;SDS011;114;48.260;10.988;2023-05-07T08:55:32;5.30;;;3.57;;
261;SDS011;114;48.260;10.988;2023-05-07T08:57:58;6.47;;;3.63;;
261;SDS011;114;48.260;10.988;2023-05-07T09:00:24;4.17;;;3.87;;
261;SDS011;114;48.260;10.988;2023-05-07T09:02:50;3.60;;;3.30;;
261;SDS011;114;48.260;10.988;2023-05-07T09:05:17;5.70;;;3.67;;
261;SDS011;114;48.260;10.988;2023-05-07T09:07:43;4.90;;;3.70;;
261;SDS011;114;48.260;10.988;2023-05-07T09:10:09;5.40;;;3.53;;
261;SDS011;114;48.260;10.988;2023-05-07T09:12:35;5.53;;;3.33;;
261;SDS011;114;48.260;10.988;2023-05-07T09:15:01;3.97;;;3.67;;
261;SDS011;114;48.260;10.988;2023-05-07T09:17:28;4.90;;;3.37;;
261;SDS011;114;48.260;10.988;2023-05-07T09:19:54;4.70;;;4.20;;
261;SDS011;114;48.260;10.988;2023-05-07T09:22:20;3.80;;;3.50;;
261;SDS011;114;48.260;10.988;2023-05-07T09:24:49;4.33;;;3.00;;
261;SDS011;114;48.260;10.988;2023-05-07T09:27:15;3.27;;;3.07;;
261;SDS011;114;48.260;10.988;2023-05-07T09:29:41;6.73;;;2.40;;
261;SDS011;114;48.260;10.988;2023-05-07T09:32:08;9.77;;;2.10;;
261;SDS011;114;48.260;10.988;2023-05-07T09:34:34;2.63;;;2.10;;
261;SDS011;114;48.260;10.988;2023-05-07T09:37:04;2.53;;;2.30;;
261;SDS011;114;48.260;10.988;2023-05-07T09:39:43;3.60;;;3.27;;
261;SDS011;114;48.260;10.988;2023-05-07T09:42:10;2.47;;;2.30;;
261;SDS011;114;48.260;10.988;2023-05-07T09:44:36;5.67;;;3.90;;
261;SDS011;114;48.260;10.988;2023-05-07T09:47:06;3.67;;;2.60;;
261;SDS011;114;48.260;10.988;2023-05-07T09:49:36;4.20;;;3.20;;
261;SDS011;114;48.260;10.988;2023-05-07T09:52:07;2.47;;;2.37;;
261;SDS011;114;48.260;10.988;2023-05-07T09:54:35;8.33;;;3.97;;
261;SDS011;114;48.260;10.988;2023-05-07T09:57:03;2.40;;;2.20;;
261;SDS011;114;48.260;10.988;2023-05-07T09:59:31;3.67;;;2.17;;
261;SDS011;114;48.260;10.988;2023-05-07T10:01:58;1.90;;;1.70;;
261;SDS011;114;48.260;10.988;2023-05-07T10:04:27;3.10;;;1.60;;
261;SDS011;114;48.260;10.988;2023-05-07T10:06:54;2.70;;;2.10;;
261;SDS011;114;48.260;10.988;2023-05-07T10:09:20;1.50;;;1.27;;
261;SDS011;114;48.260;10.988;2023-05-07T10:11:47;3.43;;;1.13;;
261;SDS011;114;48.260;10.988;2023-05-07T10:14:14;4.20;;;1.60;;
261;SDS011;114;48.260;10.988;2023-05-07T10:16:40;2.03;;;1.00;;
261;SDS011;114;48.260;10.988;2023-05-07T10:19:07;1.47;;;1.20;;
261;SDS011;114;48.260;10.988;2023-05-07T10:21:36;5.30;;;1.50;;
261;SDS011;114;48.260;10.988;2023-05-07T10:24:06;5.20;;;1.90;;
261;SDS011;114;48.260;10.988;2023-05-07T10:26:39;1.67;;;1.43;;
261;SDS011;114;48.260;10.988;2023-05-07T10:29:11;1.20;;;1.10;;
261;SDS011;114;48.260;10.988;2023-05-07T10:31:48;3.60;;;1.00;;
261;SDS011;114;48.260;10.988;2023-05-07T10:34:24;1.33;;;1.23;;
261;SDS011;114;48.260;10.988;2023-05-07T10:36:54;1.10;;;1.10;;
261;SDS011;114;48.260;10.988;2023-05-07T10:39:21;8.00;;;1.80;;
261;SDS011;114;48.260;10.988;2023-05-07T10:41:48;1.63;;;1.33;;
261;SDS011;114;48.260;10.988;2023-05-07T10:47:25;3.40;;;1.80;;
261;SDS011;114;48.260;10.988;2023-05-07T10:54:41;2.27;;;1.30;;
261;SDS011;114;48.260;10.988;2023-05-07T11:05:26;1.77;;;1.67;;
261;SDS011;114;48.260;10.988;2023-05-07T11:07:56;1.30;;;1.20;;
261;SDS011;114;48.260;10.988;2023-05-07T11:16:30;6.43;;;1.30;;
261;SDS011;114;48.260;10.988;2023-05-07T11:18:57;2.30;;;1.13;;
261;SDS011;114;48.260;10.988;2023-05-07T11:21:39;2.17;;;1.27;;
261;SDS011;114;48.260;10.988;2023-05-07T11:24:07;1.53;;;1.00;;
261;SDS011;114;48.260;10.988;2023-05-07T11:29:22;1.37;;;1.13;;
261;SDS011;114;48.260;10.988;2023-05-07T11:31:48;2.90;;;1.00;;
261;SDS011;114;48.260;10.988;2023-05-07T11:34:15;1.37;;;1.27;;
261;SDS011;114;48.260;10.988;2023-05-07T11:36:50;1.97;;;1.73;;
261;SDS011;114;48.260;10.988;2023-05-07T11:39:26;2.13;;;1.23;;
261;SDS011;114;48.260;10.988;2023-05-07T11:41:52;1.77;;;1.30;;
261;SDS011;114;48.260;10.988;2023-05-07T11:44:18;1.93;;;1.17;;
261;SDS011;114;48.260;10.988;2023-05-07T11:46:43;4.50;;;1.33;;
261;SDS011;114;48.260;10.988;2023-05-07T11:49:10;1.97;;;1.00;;
261;SDS011;114;48.260;10.988;2023-05-07T11:51:35;4.80;;;1.10;;
261;SDS011;114;48.260;10.988;2023-05-07T11:54:03;5.60;;;1.63;;
261;SDS011;114;48.260;10.988;2023-05-07T11:56:29;2.80;;;1.03;;
261;SDS011;114;48.260;10.988;2023-05-07T11:58:58;3.37;;;1.70;;
261;SDS011;114;48.260;10.988;2023-05-07T12:01:24;2.60;;;1.47;;
261;SDS011;114;48.260;10.988;2023-05-07T12:03:50;3.33;;;1.40;;
261;SDS011;114;48.260;10.988;2023-05-07T12:06:16;0.70;;;0.60;;
261;SDS011;114;48.260;10.988;2023-05-07T12:08:42;1.03;;;1.03;;
261;SDS011;114;48.260;10.988;2023-05-07T12:11:10;1.67;;;1.57;;
261;SDS011;114;48.260;10.988;2023-05-07T12:13:39;1.10;;;0.93;;
261;SDS011;114;48.260;10.988;2023-05-07T12:16:06;2.40;;;0.90;;
261;SDS011;114;48.260;10.988;2023-05-07T12:18:33;1.47;;;1.10;;
261;SDS011;114;48.260;10.988;2023-05-07T12:21:00;3.97;;;1.23;;
261;SDS011;114;48.260;10.988;2023-05-07T12:23:27;1.47;;;1.37;;
261;SDS011;114;48.260;10.988;2023-05-07T12:25:53;1.50;;;1.40;;
261;SDS011;114;48.260;10.988;2023-05-07T12:28:19;2.50;;;1.10;;
261;SDS011;114;48.260;10.988;2023-05-07T12:30:46;1.00;;;0.90;;
261;SDS011;114;48.260;10.988;2023-05-07T12:33:16;2.40;;;1.30;;
261;SDS011;114;48.260;10.988;2023-05-07T12:35:43;1.57;;;1.30;;
261;SDS011;114;48.260;10.988;2023-05-07T12:38:09;2.60;;;0.90;;
261;SDS011;114;48.260;10.988;2023-05-07T12:40:37;1.57;;;1.07;;
261;SDS011;114;48.260;10.988;2023-05-07T12:43:07;1.80;;;1.30;;
261;SDS011;114;48.260;10.988;2023-05-07T12:45:41;2.00;;;0.87;;
261;SDS011;114;48.260;10.988;2023-05-07T12:48:07;0.97;;;0.77;;
261;SDS011;114;48.260;10.988;2023-05-07T12:50:35;3.53;;;1.17;;
261;SDS011;114;48.260;10.988;2023-05-07T12:53:00;0.80;;;0.80;;
261;SDS011;114;48.260;10.988;2023-05-07T12:55:31;0.70;;;0.70;;
261;SDS011;114;48.260;10.988;2023-05-07T12:57:57;1.27;;;0.80;;
261;SDS011;114;48.260;10.988;2023-05-07T13:00:36;3.80;;;1.20;;
261;SDS011;114;48.260;10.988;2023-05-07T13:03:04;2.93;;;1.10;;
261;SDS011;114;48.260;10.988;2023-05-07T13:05:31;9.43;;;2.03;;
261;SDS011;114;48.260;10.988;2023-05-07T13:07:57;3.07;;;1.13;;
261;SDS011;114;48.260;10.988;2023-05-07T13:10:23;2.10;;;1.13;;
261;SDS011;114;48.260;10.988;2023-05-07T13:12:50;6.73;;;1.03;;
261;SDS011;114;48.260;10.988;2023-05-07T13:15:16;1.70;;;0.70;;
261;SDS011;114;48.260;10.988;2023-05-07T13:17:42;1.47;;;1.00;;
261;SDS011;114;48.260;10.988;2023-05-07T13:20:11;1.90;;;1.00;;
261;SDS011;114;48.260;10.988;2023-05-07T13:22:40;0.90;;;0.80;;
261;SDS011;114;48.260;10.988;2023-05-07T13:25:06;1.37;;;1.27;;
261;SDS011;114;48.260;10.988;2023-05-07T13:27:32;5.90;;;1.10;;
261;SDS011;114;48.260;10.988;2023-05-07T13:30:01;1.23;;;1.10;;
261;SDS011;114;48.260;10.988;2023-05-07T13:32:28;2.70;;;1.40;;
261;SDS011;114;48.260;10.988;2023-05-07T13:34:54;3.00;;;1.40;;
261;SDS011;114;48.260;10.988;2023-05-07T13:37:20;3.40;;;1.03;;
261;SDS011;114;48.260;10.988;2023-05-07T13:39:46;1.40;;;1.00;;
261;SDS011;114;48.260;10.988;2023-05-07T13:42:12;2.87;;;1.33;;
261;SDS011;114;48.260;10.988;2023-05-07T13:44:37;1.57;;;1.07;;
261;SDS011;114;48.260;10.988;2023-05-07T13:47:03;1.33;;;1.23;;
261;SDS011;114;48.260;10.988;2023-05-07T13:49:30;2.40;;;1.50;;
261;SDS011;114;48.260;10.988;2023-05-07T13:51:56;2.33;;;1.13;;
261;SDS011;114;48.260;10.988;2023-05-07T13:54:21;1.50;;;1.40;;
261;SDS011;114;48.260;10.988;2023-05-07T13:56:47;4.67;;;1.67;;
261;SDS011;114;48.260;10.988;2023-05-07T13:59:13;3.87;;;1.30;;
261;SDS011;114;48.260;10.988;2023-05-07T14:01:39;6.30;;;1.40;;
261;SDS011;114;48.260;10.988;2023-05-07T14:04:05;1.67;;;1.57;;
261;SDS011;114;48.260;10.988;2023-05-07T14:06:31;2.47;;;2.27;;
261;SDS011;114;48.260;10.988;2023-05-07T14:08:57;11.43;;;9.60;;
261;SDS011;114;48.260;10.988;2023-05-07T14:11:23;7.13;;;5.40;;
261;SDS011;114;48.260;10.988;2023-05-07T14:13:48;5.43;;;3.50;;
261;SDS011;114;48.260;10.988;2023-05-07T14:16:14;11.50;;;8.90;;
261;SDS011;114;48.260;10.988;2023-05-07T14:18:40;2.90;;;2.70;;
261;SDS011;114;48.260;10.988;2023-05-07T14:21:05;3.67;;;2.03;;
261;SDS011;114;48.260;10.988;2023-05-07T14:23:32;2.70;;;2.50;;
261;SDS011;114;48.260;10.988;2023-05-07T14:25:57;7.30;;;2.40;;
261;SDS011;114;48.260;10.988;2023-05-07T14:28:23;5.40;;;2.63;;
261;SDS011;114;48.260;10.988;2023-05-07T14:30:49;2.30;;;2.20;;
261;SDS011;114;48.260;10.988;2023-05-07T14:33:15;1.97;;;1.80;;
261;SDS011;114;48.260;10.988;2023-05-07T14:35:40;2.27;;;2.10;;
261;SDS011;114;48.260;10.988;2023-05-07T14:38:10;2.70;;;1.70;;
261;SDS011;114;48.260;10.988;2023-05-07T14:40:35;3.00;;;1.60;;
261;SDS011;114;48.260;10.988;2023-05-07T14:43:01;5.33;;;2.63;;
261;SDS011;114;48.260;10.988;2023-05-07T14:45:27;4.80;;;2.00;;
261;SDS011;114;48.260;10.988;2023-05-07T14:47:53;3.33;;;1.47;;
261;SDS011;114;48.260;10.988;2023-05-07T14:50:18;2.00;;;1.90;;
261;SDS011;114;48.260;10.988;2023-05-07T14:52:44;3.63;;;1.90;;
261;SDS011;114;48.260;10.988;2023-05-07T14:55:11;4.83;;;2.03;;
261;SDS011;114;48.260;10.988;2023-05-07T14:57:37;2.90;;;2.00;;
261;SDS011;114;48.260;10.988;2023-05-07T15:00:06;1.67;;;1.50;;
261;SDS011;114;48.260;10.988;2023-05-07T15:02:32;1.83;;;1.73;;
261;SDS011;114;48.260;10.988;2023-05-07T15:04:58;3.20;;;1.70;;
261;SDS011;114;48.260;10.988;2023-05-07T15:07:24;2.37;;;1.60;;
261;SDS011;114;48.260;10.988;2023-05-07T15:09:50;2.07;;;1.47;;
261;SDS011;114;48.260;10.988;2023-05-07T15:12:16;6.90;;;2.03;;
261;SDS011;114;48.260;10.988;2023-05-07T15:14:42;6.87;;;2.27;;
261;SDS011;114;48.260;10.988;2023-05-07T15:17:07;1.90;;;1.50;;
261;SDS011;114;48.260;10.988;2023-05-07T15:19:33;5.03;;;1.83;;
261;SDS011;114;48.260;10.988;2023-05-07T15:21:59;2.30;;;2.10;;
261;SDS011;114;48.260;10.988;2023-05-07T15:24:28;2.17;;;1.60;;
261;SDS011;114;48.260;10.988;2023-05-07T15:26:55;3.00;;;2.10;;
261;SDS011;114;48.260;10.988;2023-05-07T15:29:21;1.53;;;1.53;;
261;SDS011;114;48.260;10.988;2023-05-07T15:31:47;1.87;;;1.77;;
261;SDS011;114;48.260;10.988;2023-05-07T15:34:13;4.00;;;1.47;;
261;SDS011;114;48.260;10.988;2023-05-07T15:36:41;3.53;;;2.27;;
261;SDS011;114;48.260;10.988;2023-05-07T15:39:08;7.37;;;2.47;;
261;SDS011;114;48.260;10.988;2023-05-07T15:41:35;1.73;;;1.63;;
261;SDS011;114;48.260;10.988;2023-05-07T15:44:01;3.00;;;1.70;;
261;SDS011;114;48.260;10.988;2023-05-07T15:46:28;6.10;;;1.63;;
261;SDS011;114;48.260;10.988;2023-05-07T15:48:54;6.30;;;1.70;;